Time;durP1;ratioP1;P1;durP2;ratioP2;P2;SDS_P1;SDS_P2;PMS_P1;PMS_P2;Temp;Humidity;BMP_temperature;BMP_pressure;BME280_temperature;BME280_humidity;BME280_pressure;Samples;Min_cycle;Max_cycle;Signal;HPM_P1;HPM_P2
2023/03/07 00:00:42;;;;;;;;;;;7.00;99.90;;;;;;7345201;19;108324;-91
2023/03/07 00:03:13;;;;;;;;;;;7.10;99.90;;;;;;7345010;19;110234;-92
2023/03/07 00:05:40;;;;;;;;;;;7.10;99.90;;;;;;7350382;19;110139;-92
2023/03/07 00:08:07;;;;;;;;;;;7.10;99.90;;;;;;7347639;19;108600;-91
2023/03/07 00:10:34;;;;;;;;;;;7.10;99.90;;;;;;7343219;19;110203;-92
2023/03/07 00:13:02;;;;;;;;;;;7.10;99.90;;;;;;7346063;19;109096;-92
2023/03/07 00:15:29;;;;;;;;;;;7.10;99.90;;;;;;7343606;19;108870;-90
2023/03/07 00:17:56;;;;;;;;;;;7.10;99.90;;;;;;7341407;19;110249;-92
2023/03/07 00:20:23;;;;;;;;;;;7.10;99.90;;;;;;7346108;19;108451;-91
2023/03/07 00:22:50;;;;;;;;;;;7.10;99.90;;;;;;7346172;19;108893;-92
2023/03/07 00:25:17;;;;;;;;;;;7.10;99.90;;;;;;7343697;19;110355;-92
2023/03/07 00:27:44;;;;;;;;;;;7.10;99.90;;;;;;7349882;19;108438;-91
2023/03/07 00:30:11;;;;;;;;;;;7.10;99.90;;;;;;7342820;19;109493;-93
2023/03/07 00:32:38;;;;;;;;;;;7.10;99.90;;;;;;7342896;19;108615;-91
2023/03/07 00:35:05;;;;;;;;;;;7.10;99.90;;;;;;7342180;19;108216;-92
2023/03/07 00:37:32;;;;;;;;;;;7.10;99.90;;;;;;7343135;19;111316;-91
2023/03/07 00:39:59;;;;;;;;;;;7.10;99.90;;;;;;7343010;19;108728;-90
2023/03/07 00:42:26;;;;;;;;;;;7.10;99.90;;;;;;7344986;19;108873;-91
2023/03/07 00:44:53;;;;;;;;;;;7.10;99.90;;;;;;7343891;19;112515;-92
2023/03/07 00:47:20;;;;;;;;;;;7.10;99.90;;;;;;7344850;19;109286;-91
2023/03/07 00:49:47;;;;;;;;;;;7.10;99.90;;;;;;7348163;19;109002;-92
2023/03/07 00:52:14;;;;;;;;;;;7.10;99.90;;;;;;7342228;19;108513;-91
2023/03/07 00:54:44;;;;;;;;;;;7.10;99.90;;;;;;7342122;19;109584;-91
2023/03/07 00:57:11;;;;;;;;;;;7.10;99.90;;;;;;7344519;19;109650;-91
2023/03/07 00:59:38;;;;;;;;;;;7.10;99.90;;;;;;7350234;19;108330;-91
2023/03/07 01:02:05;;;;;;;;;;;7.10;99.90;;;;;;7351664;19;110038;-92
2023/03/07 01:04:32;;;;;;;;;;;7.10;99.90;;;;;;7350814;19;109759;-91
2023/03/07 01:06:59;;;;;;;;;;;7.10;99.90;;;;;;7348657;19;108833;-92
2023/03/07 01:09:26;;;;;;;;;;;7.10;99.90;;;;;;7351054;19;112189;-91
2023/03/07 01:11:53;;;;;;;;;;;7.10;99.90;;;;;;7356153;19;110632;-92
2023/03/07 01:14:20;;;;;;;;;;;7.10;99.90;;;;;;7355628;19;109493;-91
2023/03/07 01:16:47;;;;;;;;;;;7.00;99.90;;;;;;7351041;19;111139;-90
2023/03/07 01:19:14;;;;;;;;;;;7.10;99.90;;;;;;7351612;19;108512;-91
2023/03/07 01:21:42;;;;;;;;;;;7.00;99.90;;;;;;7348539;19;109328;-92
2023/03/07 01:24:10;;;;;;;;;;;7.00;99.90;;;;;;7350439;19;113677;-92
2023/03/07 01:26:37;;;;;;;;;;;7.10;99.90;;;;;;7348201;19;108914;-92
2023/03/07 01:29:05;;;;;;;;;;;7.00;99.90;;;;;;7351654;19;109161;-92
2023/03/07 01:31:32;;;;;;;;;;;7.00;99.90;;;;;;7355744;19;113752;-92
2023/03/07 01:34:00;;;;;;;;;;;7.00;99.90;;;;;;7351096;19;109126;-92
2023/03/07 01:36:29;;;;;;;;;;;7.00;99.90;;;;;;7347387;19;110299;-92
2023/03/07 01:38:59;;;;;;;;;;;7.00;99.90;;;;;;7350119;19;108769;-91
2023/03/07 01:41:30;;;;;;;;;;;7.10;99.90;;;;;;7349160;19;109190;-92
2023/03/07 01:43:58;;;;;;;;;;;7.10;99.90;;;;;;7347770;19;110173;-91
2023/03/07 01:46:32;;;;;;;;;;;7.10;99.90;;;;;;7350281;19;108984;-91
2023/03/07 01:49:02;;;;;;;;;;;7.10;99.90;;;;;;7349018;19;112587;-92
2023/03/07 01:51:30;;;;;;;;;;;7.10;99.90;;;;;;7348583;19;110045;-92
2023/03/07 01:53:57;;;;;;;;;;;7.10;99.90;;;;;;7356541;19;108275;-92
2023/03/07 01:56:24;;;;;;;;;;;7.10;99.90;;;;;;7346069;19;109274;-92
2023/03/07 01:58:52;;;;;;;;;;;7.00;99.90;;;;;;7353322;19;109838;-92
2023/03/07 02:01:19;;;;;;;;;;;7.10;99.90;;;;;;7350034;19;108411;-92
2023/03/07 02:03:49;;;;;;;;;;;7.10;99.90;;;;;;7348417;19;109958;-92
2023/03/07 02:06:17;;;;;;;;;;;7.10;99.90;;;;;;7348180;19;108382;-93
2023/03/07 02:08:45;;;;;;;;;;;7.10;99.90;;;;;;7347584;19;109085;-92
2023/03/07 02:11:12;;;;;;;;;;;7.10;99.90;;;;;;7349397;19;110479;-92
2023/03/07 02:13:39;;;;;;;;;;;7.10;99.90;;;;;;7351509;19;108477;-91
2023/03/07 02:16:07;;;;;;;;;;;7.00;99.90;;;;;;7354446;19;109414;-92
2023/03/07 02:18:37;;;;;;;;;;;7.10;99.90;;;;;;7347981;19;108326;-92
2023/03/07 02:21:23;;;;;;;;;;;7.10;99.90;;;;;;7347559;19;110358;-92
2023/03/07 02:24:00;;;;;;;;;;;7.10;99.90;;;;;;7347452;19;111501;-93
2023/03/07 02:26:27;;;;;;;;;;;7.10;99.90;;;;;;7345204;19;108580;-91
2023/03/07 02:28:55;;;;;;;;;;;7.10;99.90;;;;;;7347055;19;109090;-91
2023/03/07 02:31:22;;;;;;;;;;;7.10;99.90;;;;;;7346189;19;109803;-91
2023/03/07 02:33:49;;;;;;;;;;;7.10;99.90;;;;;;7347111;19;108422;-92
2023/03/07 02:36:19;;;;;;;;;;;7.10;99.90;;;;;;7347805;19;109368;-92
2023/03/07 02:38:47;;;;;;;;;;;7.10;99.90;;;;;;7350051;19;110652;-93
2023/03/07 02:41:16;;;;;;;;;;;7.10;99.90;;;;;;7347750;19;109695;-92
2023/03/07 02:43:43;;;;;;;;;;;7.10;99.90;;;;;;7349532;19;111007;-92
2023/03/07 02:46:10;;;;;;;;;;;7.00;99.90;;;;;;7350435;19;109690;-92
2023/03/07 02:48:37;;;;;;;;;;;7.10;99.90;;;;;;7347124;19;109787;-92
2023/03/07 02:51:05;;;;;;;;;;;7.10;99.90;;;;;;7348410;19;110179;-91
2023/03/07 02:53:31;;;;;;;;;;;7.10;99.90;;;;;;7349215;19;108642;-92
2023/03/07 02:55:58;;;;;;;;;;;7.10;99.90;;;;;;7349742;19;109277;-92
2023/03/07 02:58:26;;;;;;;;;;;7.00;99.90;;;;;;7349923;19;109993;-93
2023/03/07 03:00:52;;;;;;;;;;;7.00;99.90;;;;;;7352897;19;109381;-91
2023/03/07 03:03:19;;;;;;;;;;;7.00;99.90;;;;;;7348556;19;112220;-92
2023/03/07 03:05:47;;;;;;;;;;;7.00;99.90;;;;;;7348466;19;108325;-92
2023/03/07 03:08:13;;;;;;;;;;;7.00;99.90;;;;;;7349925;19;109282;-91
2023/03/07 03:10:40;;;;;;;;;;;7.00;99.90;;;;;;7345464;19;110458;-91
2023/03/07 03:13:07;;;;;;;;;;;7.00;99.90;;;;;;7346560;19;108353;-91
2023/03/07 03:15:34;;;;;;;;;;;7.00;99.90;;;;;;7348769;19;108703;-91
2023/03/07 03:18:01;;;;;;;;;;;6.90;99.90;;;;;;7343810;19;110131;-92
2023/03/07 03:20:28;;;;;;;;;;;6.90;99.90;;;;;;7347233;19;108895;-91
2023/03/07 03:22:55;;;;;;;;;;;6.90;99.90;;;;;;7353736;19;109126;-90
2023/03/07 03:25:23;;;;;;;;;;;7.00;99.90;;;;;;7347493;19;109290;-91
2023/03/07 03:27:50;;;;;;;;;;;6.90;99.90;;;;;;7346755;19;112708;-92
2023/03/07 03:30:17;;;;;;;;;;;6.90;99.90;;;;;;7349637;19;109670;-92
2023/03/07 03:32:45;;;;;;;;;;;6.90;99.90;;;;;;7347570;19;108778;-92
2023/03/07 03:35:13;;;;;;;;;;;6.90;99.90;;;;;;7348530;19;108577;-92
2023/03/07 03:37:40;;;;;;;;;;;6.90;99.90;;;;;;7344333;19;110605;-92
2023/03/07 03:40:13;;;;;;;;;;;6.90;99.90;;;;;;7347503;19;109541;-92
2023/03/07 03:42:40;;;;;;;;;;;6.80;99.90;;;;;;7351465;19;109300;-92
2023/03/07 03:45:09;;;;;;;;;;;6.80;99.90;;;;;;7347222;19;109003;-91
2023/03/07 03:47:36;;;;;;;;;;;6.80;99.90;;;;;;7344880;19;111502;-91
2023/03/07 03:50:03;;;;;;;;;;;6.80;99.90;;;;;;7345122;19;108523;-91
2023/03/07 03:52:30;;;;;;;;;;;6.80;99.90;;;;;;7348584;19;108534;-92
2023/03/07 03:54:57;;;;;;;;;;;6.80;99.90;;;;;;7345984;19;108409;-92
2023/03/07 03:57:24;;;;;;;;;;;6.80;99.90;;;;;;7344933;19;110554;-93
2023/03/07 03:59:51;;;;;;;;;;;6.80;99.90;;;;;;7339040;19;109071;-87
2023/03/07 04:02:18;;;;;;;;;;;6.80;99.90;;;;;;7336157;19;109521;-86
2023/03/07 04:04:45;;;;;;;;;;;6.70;99.90;;;;;;7342150;19;112462;-86
2023/03/07 04:07:12;;;;;;;;;;;6.70;99.90;;;;;;7338697;19;109196;-90
2023/03/07 04:09:39;;;;;;;;;;;6.70;99.90;;;;;;7336053;19;108345;-86
2023/03/07 04:12:06;;;;;;;;;;;6.80;99.90;;;;;;7338281;19;108456;-87
2023/03/07 04:14:33;;;;;;;;;;;6.70;99.90;;;;;;7335586;19;110026;-86
2023/03/07 04:17:00;;;;;;;;;;;6.70;99.90;;;;;;7337383;19;110363;-86
2023/03/07 04:19:27;;;;;;;;;;;6.70;99.90;;;;;;7335555;19;112191;-87
2023/03/07 04:21:55;;;;;;;;;;;6.70;99.90;;;;;;7338245;19;110273;-86
2023/03/07 04:24:22;;;;;;;;;;;6.70;99.90;;;;;;7335501;19;113268;-85
2023/03/07 04:26:49;;;;;;;;;;;6.70;99.90;;;;;;7340426;19;109624;-87
2023/03/07 04:29:16;;;;;;;;;;;6.70;99.90;;;;;;7338125;19;112383;-86
2023/03/07 04:31:42;;;;;;;;;;;6.80;99.90;;;;;;7334678;19;109774;-87
2023/03/07 04:34:09;;;;;;;;;;;6.80;99.90;;;;;;7331464;19;112407;-85
2023/03/07 04:36:36;;;;;;;;;;;6.80;99.90;;;;;;7336116;19;113773;-86
2023/03/07 04:39:03;;;;;;;;;;;6.80;99.90;;;;;;7336446;19;108678;-86
2023/03/07 04:41:32;;;;;;;;;;;6.80;99.90;;;;;;7338292;19;109361;-85
2023/03/07 04:43:59;;;;;;;;;;;6.80;99.90;;;;;;7335004;19;109739;-86
2023/03/07 04:46:27;;;;;;;;;;;6.80;99.90;;;;;;7336168;19;109108;-87
2023/03/07 04:48:54;;;;;;;;;;;6.80;99.90;;;;;;7343036;19;110372;-86
2023/03/07 04:51:21;;;;;;;;;;;6.70;99.90;;;;;;7339537;19;108412;-87
2023/03/07 04:53:48;;;;;;;;;;;6.80;99.90;;;;;;7337069;19;109499;-86
2023/03/07 04:56:15;;;;;;;;;;;6.70;99.90;;;;;;7335808;19;110190;-86
2023/03/07 04:58:42;;;;;;;;;;;6.80;99.90;;;;;;7338492;19;108744;-85
2023/03/07 05:01:10;;;;;;;;;;;6.70;99.90;;;;;;7335864;19;110190;-86
2023/03/07 05:03:37;;;;;;;;;;;6.70;99.90;;;;;;7336171;19;110470;-86
2023/03/07 05:06:07;;;;;;;;;;;6.70;99.90;;;;;;7335355;19;109018;-86
2023/03/07 05:08:34;;;;;;;;;;;6.70;99.90;;;;;;7334994;19;111520;-86
2023/03/07 05:11:02;;;;;;;;;;;6.70;99.90;;;;;;7339807;19;110470;-86
2023/03/07 05:13:29;;;;;;;;;;;6.70;99.90;;;;;;7337457;19;109109;-86
2023/03/07 05:15:56;;;;;;;;;;;6.70;99.90;;;;;;7338314;19;110569;-86
2023/03/07 05:18:24;;;;;;;;;;;6.70;99.90;;;;;;7334330;19;109043;-87
2023/03/07 05:20:51;;;;;;;;;;;6.70;99.90;;;;;;7334780;19;109248;-87
2023/03/07 05:23:19;;;;;;;;;;;6.70;99.90;;;;;;7333966;19;113823;-86
2023/03/07 05:25:46;;;;;;;;;;;6.70;99.90;;;;;;7333453;19;109919;-86
2023/03/07 05:28:15;;;;;;;;;;;6.70;99.90;;;;;;7333078;19;110251;-86
2023/03/07 05:30:45;;;;;;;;;;;6.70;99.90;;;;;;7333725;19;110694;-85
2023/03/07 05:33:13;;;;;;;;;;;6.70;99.90;;;;;;7340494;19;108667;-87
2023/03/07 05:35:40;;;;;;;;;;;6.70;99.90;;;;;;7333338;19;110126;-86
2023/03/07 05:38:08;;;;;;;;;;;6.70;99.90;;;;;;7336391;19;108852;-86
2023/03/07 05:40:35;;;;;;;;;;;6.70;99.90;;;;;;7332348;19;111037;-86
2023/03/07 05:43:02;;;;;;;;;;;6.70;99.90;;;;;;7334305;19;113814;-86
2023/03/07 05:45:29;;;;;;;;;;;6.70;99.90;;;;;;7335568;19;108357;-86
2023/03/07 05:47:56;;;;;;;;;;;6.70;99.90;;;;;;7341585;19;108767;-86
2023/03/07 05:50:23;;;;;;;;;;;6.70;99.90;;;;;;7342516;19;110177;-86
2023/03/07 05:52:51;;;;;;;;;;;6.70;99.90;;;;;;7346650;19;109452;-86
2023/03/07 05:55:18;;;;;;;;;;;6.70;99.90;;;;;;7338106;19;110159;-87
2023/03/07 05:57:45;;;;;;;;;;;6.70;99.90;;;;;;7342966;19;114142;-87
2023/03/07 06:00:13;;;;;;;;;;;6.70;99.90;;;;;;7343995;19;109250;-87
2023/03/07 06:02:41;;;;;;;;;;;6.70;99.90;;;;;;7339448;19;110358;-86
2023/03/07 06:05:08;;;;;;;;;;;6.70;99.90;;;;;;7340976;19;108589;-86
2023/03/07 06:07:35;;;;;;;;;;;6.70;99.90;;;;;;7338588;19;109856;-86
2023/03/07 06:10:02;;;;;;;;;;;6.70;99.90;;;;;;7341868;19;110779;-87
2023/03/07 06:12:29;;;;;;;;;;;6.70;99.90;;;;;;7342129;19;108625;-86
2023/03/07 06:14:56;;;;;;;;;;;6.70;99.90;;;;;;7345242;19;108759;-86
2023/03/07 06:17:23;;;;;;;;;;;6.70;99.90;;;;;;7340156;19;108531;-84
2023/03/07 06:19:50;;;;;;;;;;;6.70;99.90;;;;;;7341419;19;109785;-87
2023/03/07 06:22:17;;;;;;;;;;;6.70;99.90;;;;;;7337413;19;109403;-86
2023/03/07 06:24:43;;;;;;;;;;;6.60;99.90;;;;;;7336535;19;108966;-86
2023/03/07 06:27:10;;;;;;;;;;;6.70;99.90;;;;;;7338460;19;113980;-86
2023/03/07 06:29:37;;;;;;;;;;;6.70;99.90;;;;;;7338643;19;110233;-86
2023/03/07 06:32:04;;;;;;;;;;;6.70;99.90;;;;;;7340587;19;110494;-85
2023/03/07 06:34:32;;;;;;;;;;;6.70;99.90;;;;;;7337827;19;108753;-85
2023/03/07 06:36:58;;;;;;;;;;;6.70;99.90;;;;;;7345645;19;110722;-86
2023/03/07 06:39:26;;;;;;;;;;;6.70;99.90;;;;;;7337999;19;109650;-86
2023/03/07 06:41:56;;;;;;;;;;;6.80;99.90;;;;;;7340246;19;113912;-85
2023/03/07 06:44:23;;;;;;;;;;;6.80;99.90;;;;;;7338270;19;108884;-85
2023/03/07 06:46:50;;;;;;;;;;;6.80;99.90;;;;;;7336423;19;110515;-86
2023/03/07 06:49:17;;;;;;;;;;;6.70;99.90;;;;;;7339643;19;110055;-86
2023/03/07 06:51:44;;;;;;;;;;;6.80;99.90;;;;;;7336123;19;111769;-85
2023/03/07 06:54:11;;;;;;;;;;;6.70;99.90;;;;;;7338923;19;109953;-86
2023/03/07 06:56:38;;;;;;;;;;;6.80;99.90;;;;;;7332358;19;110711;-86
2023/03/07 06:59:05;;;;;;;;;;;6.80;99.90;;;;;;7344496;19;108650;-88
2023/03/07 07:01:34;;;;;;;;;;;6.80;99.90;;;;;;7336600;19;110416;-88
2023/03/07 07:04:01;;;;;;;;;;;6.80;99.90;;;;;;7342272;19;108529;-88
2023/03/07 07:06:28;;;;;;;;;;;6.80;99.90;;;;;;7342505;19;108346;-88
2023/03/07 07:08:56;;;;;;;;;;;6.70;99.90;;;;;;7341956;19;113127;-86
2023/03/07 07:11:24;;;;;;;;;;;6.80;99.90;;;;;;7342851;19;108794;-87
2023/03/07 07:13:51;;;;;;;;;;;6.70;99.90;;;;;;7341051;19;112150;-87
2023/03/07 07:16:18;;;;;;;;;;;6.70;99.90;;;;;;7340929;19;112771;-87
2023/03/07 07:18:45;;;;;;;;;;;6.80;99.90;;;;;;7338808;19;108374;-86
2023/03/07 07:21:12;;;;;;;;;;;6.80;99.90;;;;;;7345764;19;109900;-88
2023/03/07 07:23:39;;;;;;;;;;;6.80;99.90;;;;;;7339234;19;109923;-88
2023/03/07 07:26:06;;;;;;;;;;;6.80;99.90;;;;;;7339457;19;109325;-88
2023/03/07 07:28:33;;;;;;;;;;;6.80;99.90;;;;;;7339185;19;110471;-87
2023/03/07 07:31:00;;;;;;;;;;;6.80;99.90;;;;;;7342606;19;110258;-88
2023/03/07 07:33:27;;;;;;;;;;;6.80;99.90;;;;;;7342419;19;109545;-88
2023/03/07 07:35:54;;;;;;;;;;;6.80;99.90;;;;;;7341578;19;110712;-87
2023/03/07 07:38:21;;;;;;;;;;;6.80;99.90;;;;;;7339262;19;109799;-87
2023/03/07 07:40:47;;;;;;;;;;;6.80;99.90;;;;;;7344927;19;111399;-88
2023/03/07 07:43:16;;;;;;;;;;;6.90;99.90;;;;;;7341437;19;108492;-87
2023/03/07 07:45:43;;;;;;;;;;;6.90;99.90;;;;;;7339046;19;112653;-88
2023/03/07 07:48:10;;;;;;;;;;;6.90;99.90;;;;;;7342290;19;109474;-88
2023/03/07 07:50:37;;;;;;;;;;;6.90;99.90;;;;;;7339837;19;108426;-88
2023/03/07 07:53:04;;;;;;;;;;;7.00;99.90;;;;;;7342171;19;109145;-87
2023/03/07 07:55:31;;;;;;;;;;;6.90;99.90;;;;;;7339026;19;110513;-89
2023/03/07 07:57:58;;;;;;;;;;;6.90;99.90;;;;;;7340441;19;108641;-88
2023/03/07 08:00:25;;;;;;;;;;;6.90;99.90;;;;;;7338925;19;108679;-88
2023/03/07 08:02:52;;;;;;;;;;;6.90;99.90;;;;;;7344505;19;109032;-87
2023/03/07 08:05:19;;;;;;;;;;;6.90;99.90;;;;;;7340724;19;108946;-88
2023/03/07 08:07:47;;;;;;;;;;;6.90;99.90;;;;;;7338463;19;109119;-88
2023/03/07 08:10:14;;;;;;;;;;;7.00;99.90;;;;;;7336544;19;109360;-87
2023/03/07 08:12:42;;;;;;;;;;;7.00;99.90;;;;;;7333587;19;109504;-87
2023/03/07 08:15:10;;;;;;;;;;;7.00;99.90;;;;;;7336201;19;110294;-86
2023/03/07 08:17:36;;;;;;;;;;;7.00;99.90;;;;;;7340038;19;108345;-85
2023/03/07 08:20:08;;;;;;;;;;;6.90;99.90;;;;;;7340892;19;111994;-87
2023/03/07 08:22:35;;;;;;;;;;;6.90;99.90;;;;;;7334532;19;113562;-87
2023/03/07 08:25:03;;;;;;;;;;;6.80;99.90;;;;;;7341769;19;108445;-87
2023/03/07 08:27:30;;;;;;;;;;;6.80;99.90;;;;;;7336398;19;110447;-87
2023/03/07 08:29:57;;;;;;;;;;;6.80;99.90;;;;;;7337932;19;108692;-87
2023/03/07 08:32:25;;;;;;;;;;;6.80;99.90;;;;;;7336114;19;108490;-86
2023/03/07 08:34:52;;;;;;;;;;;6.80;99.90;;;;;;7338597;19;109936;-87
2023/03/07 08:37:19;;;;;;;;;;;6.70;99.90;;;;;;7338174;19;108659;-87
2023/03/07 08:39:46;;;;;;;;;;;6.60;99.90;;;;;;7335863;19;109526;-86
2023/03/07 08:42:13;;;;;;;;;;;6.70;99.90;;;;;;7334611;19;111894;-87
2023/03/07 08:44:40;;;;;;;;;;;6.70;99.90;;;;;;7334756;19;108529;-87
2023/03/07 08:47:07;;;;;;;;;;;6.70;99.90;;;;;;7340258;19;110035;-86
2023/03/07 08:49:34;;;;;;;;;;;6.70;99.90;;;;;;7335514;19;108723;-87
2023/03/07 08:52:01;;;;;;;;;;;6.80;99.90;;;;;;7335944;19;109449;-86
2023/03/07 08:54:28;;;;;;;;;;;6.80;99.90;;;;;;7337292;19;110930;-87
2023/03/07 08:56:55;;;;;;;;;;;6.80;99.90;;;;;;7338045;19;108520;-87
2023/03/07 08:59:22;;;;;;;;;;;6.80;99.90;;;;;;7340337;19;109175;-86
2023/03/07 09:01:49;;;;;;;;;;;6.80;99.90;;;;;;7335358;19;109210;-87
2023/03/07 09:04:16;;;;;;;;;;;6.80;99.90;;;;;;7338557;19;108452;-87
2023/03/07 09:06:42;;;;;;;;;;;6.80;99.90;;;;;;7334750;19;111607;-87
2023/03/07 09:09:09;;;;;;;;;;;6.80;99.90;;;;;;7340594;19;110031;-86
2023/03/07 09:11:36;;;;;;;;;;;6.80;99.90;;;;;;7337802;19;109469;-86
2023/03/07 09:14:03;;;;;;;;;;;6.70;99.90;;;;;;7334865;19;110069;-87
2023/03/07 09:16:31;;;;;;;;;;;6.70;99.90;;;;;;7336308;19;108705;-86
2023/03/07 09:18:58;;;;;;;;;;;6.70;99.90;;;;;;7336932;19;113031;-87
2023/03/07 09:21:24;;;;;;;;;;;6.70;99.90;;;;;;7346739;19;110609;-87
2023/03/07 09:23:51;;;;;;;;;;;6.70;99.90;;;;;;7346289;19;108593;-88
2023/03/07 09:26:18;;;;;;;;;;;6.80;99.90;;;;;;7343797;19;109197;-88
2023/03/07 09:28:45;;;;;;;;;;;6.80;99.90;;;;;;7341720;19;112208;-87
2023/03/07 09:31:13;;;;;;;;;;;6.80;99.90;;;;;;7350411;19;108708;-87
2023/03/07 09:33:40;;;;;;;;;;;6.80;99.90;;;;;;7340387;19;108862;-87
2023/03/07 09:36:09;;;;;;;;;;;6.80;99.90;;;;;;7343798;19;109138;-87
2023/03/07 09:38:37;;;;;;;;;;;6.80;99.90;;;;;;7341933;19;109517;-87
2023/03/07 09:41:22;;;;;;;;;;;6.80;99.90;;;;;;7341317;19;110083;-87
2023/03/07 09:43:53;;;;;;;;;;;6.80;99.90;;;;;;7341445;19;108746;-88
2023/03/07 09:46:38;;;;;;;;;;;6.80;99.90;;;;;;7343537;19;111322;-87
2023/03/07 09:49:08;;;;;;;;;;;6.80;99.90;;;;;;7343621;19;110715;-87
2023/03/07 09:51:40;;;;;;;;;;;6.80;99.90;;;;;;7346129;19;109008;-87
2023/03/07 09:54:10;;;;;;;;;;;6.80;99.90;;;;;;7341874;19;110535;-87
2023/03/07 09:56:41;;;;;;;;;;;6.80;99.90;;;;;;7342649;19;108839;-87
2023/03/07 09:59:21;;;;;;;;;;;6.80;99.90;;;;;;7343073;19;109186;-87
2023/03/07 10:02:13;;;;;;;;;;;6.90;99.90;;;;;;7341291;19;110184;-87
2023/03/07 10:04:48;;;;;;;;;;;6.80;99.90;;;;;;7340291;19;108320;-87
2023/03/07 10:07:15;;;;;;;;;;;6.80;99.90;;;;;;7340195;19;109168;-87
2023/03/07 10:09:44;;;;;;;;;;;6.80;99.90;;;;;;7337046;19;110370;-87
2023/03/07 10:12:16;;;;;;;;;;;6.70;99.90;;;;;;7337632;19;108814;-86
2023/03/07 10:14:44;;;;;;;;;;;6.70;99.90;;;;;;7344400;19;109142;-88
2023/03/07 10:17:19;;;;;;;;;;;6.70;99.90;;;;;;7337408;19;108575;-87
2023/03/07 10:19:50;;;;;;;;;;;6.60;99.90;;;;;;7339251;19;109364;-88
2023/03/07 10:22:17;;;;;;;;;;;6.60;99.90;;;;;;7337645;19;109170;-87
2023/03/07 10:24:47;;;;;;;;;;;6.60;99.90;;;;;;7338714;19;108685;-86
2023/03/07 10:27:14;;;;;;;;;;;6.60;99.90;;;;;;7337589;19;109317;-88
2023/03/07 10:29:41;;;;;;;;;;;6.70;99.90;;;;;;7335702;19;110660;-88
2023/03/07 10:32:17;;;;;;;;;;;6.70;99.90;;;;;;7336027;19;108755;-87
2023/03/07 10:34:44;;;;;;;;;;;6.70;99.90;;;;;;7337396;19;109350;-87
2023/03/07 10:37:11;;;;;;;;;;;6.60;99.90;;;;;;7340495;19;110545;-87
2023/03/07 10:39:42;;;;;;;;;;;6.60;99.90;;;;;;7335583;19;111220;-86
2023/03/07 10:42:10;;;;;;;;;;;6.60;99.90;;;;;;7336287;19;113219;-87
2023/03/07 10:44:37;;;;;;;;;;;6.60;99.90;;;;;;7339757;19;110754;-87
2023/03/07 10:47:04;;;;;;;;;;;6.60;99.90;;;;;;7340680;19;110210;-87
2023/03/07 10:49:36;;;;;;;;;;;6.70;99.90;;;;;;7342030;19;110599;-87
2023/03/07 10:52:05;;;;;;;;;;;6.60;99.90;;;;;;7338933;19;108786;-87
2023/03/07 10:54:36;;;;;;;;;;;6.60;99.90;;;;;;7339733;19;109795;-87
2023/03/07 10:57:14;;;;;;;;;;;6.70;99.90;;;;;;7341209;19;110350;-87
2023/03/07 10:59:48;;;;;;;;;;;6.70;99.90;;;;;;7341483;19;108702;-86
2023/03/07 11:02:29;;;;;;;;;;;6.60;99.90;;;;;;7338296;19;110299;-87
2023/03/07 11:04:56;;;;;;;;;;;6.50;99.90;;;;;;7344557;19;108387;-89
2023/03/07 11:07:31;;;;;;;;;;;6.40;99.90;;;;;;7343539;19;108980;-87
2023/03/07 11:09:58;;;;;;;;;;;6.40;99.90;;;;;;7339621;19;111954;-87
2023/03/07 11:12:26;;;;;;;;;;;6.40;99.90;;;;;;7340419;19;108534;-88
2023/03/07 11:14:53;;;;;;;;;;;6.40;99.90;;;;;;7340725;19;109353;-86
2023/03/07 11:17:22;;;;;;;;;;;6.40;99.90;;;;;;7343409;19;109664;-87
2023/03/07 11:19:53;;;;;;;;;;;6.50;99.90;;;;;;7340377;19;110930;-88
2023/03/07 11:22:23;;;;;;;;;;;6.40;99.90;;;;;;7343266;19;112515;-87
2023/03/07 11:24:58;;;;;;;;;;;6.40;99.90;;;;;;7341188;19;109109;-87
2023/03/07 11:27:33;;;;;;;;;;;6.50;99.90;;;;;;7341718;19;110953;-88
2023/03/07 11:30:18;;;;;;;;;;;6.50;99.90;;;;;;7340525;19;110439;-87
2023/03/07 11:32:52;;;;;;;;;;;6.60;99.90;;;;;;7340306;19;113408;-87
2023/03/07 11:35:20;;;;;;;;;;;6.60;99.90;;;;;;7338218;19;109769;-87
2023/03/07 11:37:50;;;;;;;;;;;6.60;99.90;;;;;;7340715;19;110293;-87
2023/03/07 11:40:22;;;;;;;;;;;6.70;99.90;;;;;;7337667;19;108883;-87
2023/03/07 11:43:01;;;;;;;;;;;6.70;99.90;;;;;;7338862;19;108625;-87
2023/03/07 11:45:43;;;;;;;;;;;6.80;99.90;;;;;;7341587;19;109645;-88
2023/03/07 11:48:11;;;;;;;;;;;6.90;99.90;;;;;;7340369;19;109293;-86
2023/03/07 11:50:39;;;;;;;;;;;6.90;99.90;;;;;;7337377;19;110241;-87
2023/03/07 11:53:12;;;;;;;;;;;6.90;99.90;;;;;;7341380;19;108619;-88
2023/03/07 11:56:05;;;;;;;;;;;6.90;99.90;;;;;;7340236;19;109078;-88
2023/03/07 11:58:32;;;;;;;;;;;7.00;99.90;;;;;;7338176;19;109398;-87
2023/03/07 12:01:12;;;;;;;;;;;7.00;99.90;;;;;;7341658;19;110449;-87
2023/03/07 12:03:57;;;;;;;;;;;7.10;99.90;;;;;;7338209;19;109219;-88
2023/03/07 12:06:33;;;;;;;;;;;7.20;99.90;;;;;;7344394;19;110587;-87
2023/03/07 12:09:00;;;;;;;;;;;7.30;99.90;;;;;;7340968;19;109554;-87
2023/03/07 12:11:27;;;;;;;;;;;7.30;99.90;;;;;;7339462;19;109684;-88
2023/03/07 12:13:57;;;;;;;;;;;7.40;99.90;;;;;;7338537;19;108322;-87
2023/03/07 12:16:36;;;;;;;;;;;7.40;99.90;;;;;;7338717;19;108303;-87
2023/03/07 12:19:06;;;;;;;;;;;7.40;99.90;;;;;;7337539;19;112264;-87
2023/03/07 12:21:52;;;;;;;;;;;7.40;99.90;;;;;;7340014;19;108678;-87
2023/03/07 12:24:22;;;;;;;;;;;7.50;99.90;;;;;;7340526;19;109735;-87
2023/03/07 12:26:57;;;;;;;;;;;7.50;99.90;;;;;;7336191;19;113653;-88
2023/03/07 12:29:24;;;;;;;;;;;7.50;99.90;;;;;;7343900;19;109203;-87
2023/03/07 12:31:53;;;;;;;;;;;7.50;99.90;;;;;;7338955;19;110835;-86
2023/03/07 12:34:26;;;;;;;;;;;7.60;99.90;;;;;;7338530;19;108428;-88
2023/03/07 12:36:56;;;;;;;;;;;7.60;99.90;;;;;;7339731;19;108997;-87
2023/03/07 12:39:27;;;;;;;;;;;7.70;99.90;;;;;;7336548;19;111764;-87
2023/03/07 12:42:12;;;;;;;;;;;7.70;99.90;;;;;;7340069;19;108382;-87
2023/03/07 12:44:42;;;;;;;;;;;7.70;99.90;;;;;;7340440;19;110271;-86
2023/03/07 12:47:12;;;;;;;;;;;7.70;99.90;;;;;;7338491;19;111503;-88
2023/03/07 12:49:43;;;;;;;;;;;7.80;99.90;;;;;;7335834;19;108572;-88
2023/03/07 12:52:24;;;;;;;;;;;7.70;99.90;;;;;;7341309;19;108512;-88
2023/03/07 12:54:56;;;;;;;;;;;7.80;99.90;;;;;;7339171;19;108411;-87
2023/03/07 12:57:33;;;;;;;;;;;7.80;99.90;;;;;;7340602;19;108583;-87
2023/03/07 13:00:02;;;;;;;;;;;7.80;99.90;;;;;;7345478;19;110632;-88
2023/03/07 13:02:31;;;;;;;;;;;7.80;99.90;;;;;;7343244;19;109763;-88
2023/03/07 13:05:01;;;;;;;;;;;7.70;99.90;;;;;;7345321;19;109774;-88
2023/03/07 13:07:32;;;;;;;;;;;7.80;99.90;;;;;;7343822;19;109244;-87
2023/03/07 13:10:02;;;;;;;;;;;7.80;99.90;;;;;;7343394;19;109910;-88
2023/03/07 13:12:36;;;;;;;;;;;7.70;99.90;;;;;;7342567;19;108860;-88
2023/03/07 13:15:04;;;;;;;;;;;7.80;99.90;;;;;;7350782;19;110596;-88
2023/03/07 13:17:34;;;;;;;;;;;7.80;99.90;;;;;;7344362;19;109309;-88
2023/03/07 13:20:19;;;;;;;;;;;7.80;99.90;;;;;;7344797;19;112922;-88
2023/03/07 13:22:46;;;;;;;;;;;7.80;99.90;;;;;;7345819;19;108525;-87
2023/03/07 13:25:19;;;;;;;;;;;7.80;99.90;;;;;;7343092;19;109429;-88
2023/03/07 13:28:00;;;;;;;;;;;7.70;99.90;;;;;;7341404;19;110448;-88
2023/03/07 13:30:36;;;;;;;;;;;7.70;99.90;;;;;;7341542;19;111720;-88
2023/03/07 13:33:24;;;;;;;;;;;7.70;99.90;;;;;;7343682;19;108580;-88
2023/03/07 13:35:52;;;;;;;;;;;7.70;99.90;;;;;;7342039;19;113579;-88
2023/03/07 13:38:22;;;;;;;;;;;7.60;99.90;;;;;;7348919;19;108464;-89
2023/03/07 13:40:53;;;;;;;;;;;7.70;99.90;;;;;;7340531;19;110211;-87
2023/03/07 13:43:23;;;;;;;;;;;7.60;99.90;;;;;;7343819;19;111062;-88
2023/03/07 13:45:57;;;;;;;;;;;7.60;99.90;;;;;;7344604;19;109650;-87
2023/03/07 13:48:27;;;;;;;;;;;7.60;99.90;;;;;;7340943;19;110534;-88
2023/03/07 13:50:54;;;;;;;;;;;7.60;99.90;;;;;;7342722;19;108706;-88
2023/03/07 13:53:30;;;;;;;;;;;7.60;99.90;;;;;;7341655;19;109569;-88
2023/03/07 13:56:24;;;;;;;;;;;7.60;99.90;;;;;;7342623;19;109716;-88
2023/03/07 13:59:02;;;;;;;;;;;7.60;99.90;;;;;;7341648;19;109084;-89
2023/03/07 14:01:42;;;;;;;;;;;7.60;99.90;;;;;;7347401;19;108186;-88
2023/03/07 14:04:18;;;;;;;;;;;7.60;99.90;;;;;;7342764;19;108506;-88
2023/03/07 14:07:14;;;;;;;;;;;7.60;99.90;;;;;;7342324;19;109592;-89
2023/03/07 14:09:49;;;;;;;;;;;7.60;99.90;;;;;;7344240;19;110849;-88
2023/03/07 14:12:37;;;;;;;;;;;7.60;99.90;;;;;;7341459;19;108462;-88
2023/03/07 14:15:11;;;;;;;;;;;7.60;99.90;;;;;;7345189;19;110104;-91
2023/03/07 14:17:38;;;;;;;;;;;7.50;99.90;;;;;;7346056;19;109696;-91
2023/03/07 14:20:08;;;;;;;;;;;7.50;99.90;;;;;;7348245;19;109466;-90
2023/03/07 14:22:47;;;;;;;;;;;7.60;99.90;;;;;;7352102;19;108723;-90
2023/03/07 14:25:17;;;;;;;;;;;7.60;99.90;;;;;;7345039;19;108531;-91
2023/03/07 14:27:58;;;;;;;;;;;7.60;99.90;;;;;;7346166;19;109940;-91